Time;durP1;ratioP1;P1;durP2;ratioP2;P2;SDS_P1;SDS_P2;PMS_P1;PMS_P2;Temp;Humidity;BMP_temperature;BMP_pressure;BME280_temperature;BME280_humidity;BME280_pressure;Samples;Min_cycle;Max_cycle;Signal;HPM_P1;HPM_P2
2023/10/17 00:00:13;;;;;;;;;23.25;22.00;;;;;12.92;100.00;99267.09;6188893;28;96964;-70
2023/10/17 00:03:16;;;;;;;;;25.00;22.00;;;;;12.85;100.00;99255.50;6195907;28;96416;-69
2023/10/17 00:06:22;;;;;;;;;25.00;24.00;;;;;12.81;100.00;99261.59;6212750;28;96923;-69
2023/10/17 00:09:26;;;;;;;;;23.00;21.60;;;;;12.64;100.00;99242.47;6212565;28;96945;-69
2023/10/17 00:12:39;;;;;;;;;20.20;19.20;;;;;12.77;100.00;99253.13;6195131;28;97705;-69
2023/10/17 00:15:45;;;;;;;;;21.20;20.80;;;;;12.75;100.00;99257.94;6178399;28;98978;-69
2023/10/17 00:18:48;;;;;;;;;24.00;22.00;;;;;12.74;100.00;99250.03;6213584;28;96941;-69
2023/10/17 00:21:52;;;;;;;;;22.00;22.00;;;;;12.71;100.00;99256.72;6211880;28;96595;-69
2023/10/17 00:24:57;;;;;;;;;21.60;20.00;;;;;12.70;100.00;99252.38;6213020;28;96879;-69
2023/10/17 00:28:02;;;;;;;;;22.75;20.75;;;;;12.70;100.00;99259.66;6194344;28;97794;-70
2023/10/17 00:31:07;;;;;;;;;25.00;23.00;;;;;12.66;100.00;99259.28;6211886;28;96735;-70
2023/10/17 00:34:16;;;;;;;;;19.00;18.00;;;;;12.60;100.00;99257.50;6206960;28;96500;-69
2023/10/17 00:37:23;;;;;;;;;20.00;19.00;;;;;12.56;100.00;99245.44;6194740;28;96457;-69
2023/10/17 00:40:44;;;;;;;;;21.00;20.00;;;;;12.54;100.00;99236.75;6195502;28;96346;-70
2023/10/17 00:43:47;;;;;;;;;20.40;19.40;;;;;12.61;100.00;99247.50;6213267;28;96612;-69
2023/10/17 00:46:52;;;;;;;;;23.00;21.60;;;;;12.59;100.00;99245.00;6198960;28;96504;-69
2023/10/17 00:49:59;;;;;;;;;20.00;19.00;;;;;12.59;100.00;99253.13;6199886;28;96317;-71
2023/10/17 00:53:05;;;;;;;;;22.00;20.00;;;;;12.61;100.00;99248.31;6192961;28;96269;-69
2023/10/17 00:56:09;;;;;;;;;23.00;23.00;;;;;12.57;100.00;99247.09;6195268;28;96450;-68
2023/10/17 00:59:13;;;;;;;;;23.00;22.40;;;;;12.61;100.00;99247.50;6217459;28;96844;-69
2023/10/17 01:02:22;;;;;;;;;26.00;23.00;;;;;12.61;100.00;99244.81;6200286;28;96391;-69
2023/10/17 01:05:26;;;;;;;;;23.00;21.00;;;;;12.62;100.00;99255.38;6223742;22;97083;-68
2023/10/17 01:08:38;;;;;;;;;21.80;19.80;;;;;12.59;100.00;99242.31;6196100;28;96439;-68
2023/10/17 01:11:42;;;;;;;;;23.00;22.00;;;;;12.59;100.00;99250.44;6215548;28;96767;-68
2023/10/17 01:14:46;;;;;;;;;19.00;18.00;;;;;12.58;100.00;99251.47;6211821;28;96421;-68
2023/10/17 01:17:54;;;;;;;;;24.00;20.25;;;;;12.57;100.00;99247.09;6189830;28;98395;-68
2023/10/17 01:20:58;;;;;;;;;27.00;23.50;;;;;12.59;100.00;99250.44;6190462;28;96220;-68
2023/10/17 01:24:05;;;;;;;;;23.00;21.00;;;;;12.43;100.00;99221.28;6172629;28;96501;-68
2023/10/17 01:27:12;;;;;;;;;23.00;20.00;;;;;12.58;100.00;99256.88;6173858;28;96729;-68
2023/10/17 01:30:16;;;;;;;;;24.25;23.25;;;;;12.59;100.00;99258.53;6173285;28;96520;-68
2023/10/17 01:33:19;;;;;;;;;21.00;19.40;;;;;12.58;100.00;99248.78;6181674;28;97547;-68
2023/10/17 01:36:23;;;;;;;;;18.20;17.40;;;;;12.59;100.00;99256.66;6199380;28;97141;-67
2023/10/17 01:39:29;;;;;;;;;23.00;22.00;;;;;12.58;100.00;99249.59;6196366;28;97175;-68
2023/10/17 01:42:33;;;;;;;;;29.80;26.00;;;;;12.55;100.00;99255.47;6207222;28;96519;-68
2023/10/17 01:45:37;;;;;;;;;26.00;24.00;;;;;12.55;100.00;99255.47;6172783;28;96725;-68
2023/10/17 01:48:44;;;;;;;;;24.60;21.80;;;;;12.51;100.00;99254.25;6190384;28;97394;-68
2023/10/17 01:51:49;;;;;;;;;21.00;20.00;;;;;12.47;100.00;99258.44;6204238;28;96611;-68
2023/10/17 01:54:53;;;;;;;;;22.80;21.00;;;;;12.42;100.00;99261.00;6173176;28;96368;-68
2023/10/17 01:57:58;;;;;;;;;22.25;21.00;;;;;12.39;100.00;99257.94;6189862;28;96576;-68
2023/10/17 02:01:03;;;;;;;;;24.00;23.00;;;;;12.40;100.00;99265.00;6156246;28;96687;-67
2023/10/17 02:04:12;;;;;;;;;20.60;19.00;;;;;12.35;100.00;99267.53;6192285;28;96412;-68
2023/10/17 02:07:15;;;;;;;;;24.80;21.20;;;;;12.36;100.00;99271.91;6213938;28;96283;-68
2023/10/17 02:10:21;;;;;;;;;23.60;20.20;;;;;12.34;100.00;99276.69;6213136;28;96668;-68
2023/10/17 02:13:25;;;;;;;;;23.00;21.00;;;;;12.32;100.00;99267.97;6196752;28;98680;-68
2023/10/17 02:16:28;;;;;;;;;20.75;19.00;;;;;12.29;100.00;99265.72;6196440;28;96451;-68
2023/10/17 02:19:32;;;;;;;;;24.00;22.40;;;;;12.23;100.00;99270.16;6197905;28;96333;-73
2023/10/17 02:22:43;;;;;;;;;22.40;21.00;;;;;12.17;100.00;99275.63;6206800;28;97542;-74
2023/10/17 02:25:50;;;;;;;;;24.00;22.00;;;;;12.12;100.00;99271.69;6172240;28;96293;-73
2023/10/17 02:28:54;;;;;;;;;25.00;23.00;;;;;12.04;100.00;99273.88;6183426;28;96469;-74
2023/10/17 02:31:58;;;;;;;;;20.25;19.00;;;;;11.98;100.00;99274.75;6211783;28;96558;-74
2023/10/17 02:35:03;;;;;;;;;23.00;21.25;;;;;11.89;100.00;99282.31;6190488;28;96218;-73
2023/10/17 02:38:06;;;;;;;;;24.60;23.60;;;;;11.80;100.00;99275.53;6172431;28;96510;-74
2023/10/17 02:41:13;;;;;;;;;24.50;21.50;;;;;11.68;100.00;99264.56;6185209;28;98428;-73
2023/10/17 02:44:19;;;;;;;;;19.80;18.00;;;;;11.66;100.00;99272.06;6212965;28;96284;-73
2023/10/17 02:47:22;;;;;;;;;26.00;22.60;;;;;11.61;100.00;99271.91;6197165;28;96394;-73
2023/10/17 02:53:56;;;;;;;;;21.60;20.60;;;;;11.47;100.00;99288.41;6361668;27;95996;-73
2023/10/17 02:57:00;;;;;;;;;23.00;21.00;;;;;11.43;100.00;99287.19;6334794;27;96991;-72
2023/10/17 03:00:20;;;;;;;;;22.60;21.00;;;;;11.38;100.00;99292.41;6314334;27;99182;-72
2023/10/17 03:03:25;;;;;;;;;22.00;21.20;;;;;11.25;100.00;99294.13;6333614;27;96506;-73
2023/10/17 03:06:28;;;;;;;;;25.00;23.50;;;;;11.16;100.00;99287.34;6315944;27;96662;-72
2023/10/17 03:09:39;;;;;;;;;22.40;22.20;;;;;11.07;100.00;99282.41;6333366;27;96638;-73
2023/10/17 03:12:53;;;;;;;;;18.00;17.40;;;;;10.98;100.00;99289.94;6345399;27;97078;-73
2023/10/17 03:15:57;;;;;;;;;21.20;20.40;;;;;10.86;100.00;99303.25;6289202;27;96851;-71
2023/10/17 03:18:59;;;;;;;;;26.20;23.00;;;;;10.77;100.00;99301.00;6319353;27;96130;-72
2023/10/17 03:22:16;;;;;;;;;22.20;20.00;;;;;10.73;100.00;99307.88;6333337;27;96518;-72
2023/10/17 03:25:24;;;;;;;;;24.60;22.40;;;;;10.69;100.00;99307.47;6318193;27;96665;-72
2023/10/17 03:28:27;;;;;;;;;24.00;21.00;;;;;10.72;100.00;99308.91;6308828;27;96411;-73
2023/10/17 03:31:30;;;;;;;;;25.00;24.00;;;;;10.70;100.00;99314.50;6308840;27;96384;-72
2023/10/17 03:34:35;;;;;;;;;20.00;19.00;;;;;10.66;100.00;99317.81;6314500;27;96277;-73
2023/10/17 03:37:38;;;;;;;;;23.00;21.00;;;;;10.60;100.00;99310.59;6332025;27;96700;-72
2023/10/17 03:40:53;;;;;;;;;24.25;21.25;;;;;10.53;100.00;99313.31;6330878;27;96465;-73
2023/10/17 03:43:56;;;;;;;;;23.20;22.20;;;;;10.52;100.00;99310.81;6333286;27;96885;-72
2023/10/17 03:47:04;;;;;;;;;21.40;20.00;;;;;10.46;100.00;99307.09;6317403;27;96678;-73
2023/10/17 03:50:08;;;;;;;;;23.20;22.00;;;;;10.38;100.00;99301.94;6305085;27;99286;-72
2023/10/17 03:53:15;;;;;;;;;25.00;22.00;;;;;10.35;100.00;99307.75;6236377;27;97386;-73
2023/10/17 03:56:24;;;;;;;;;23.50;22.50;;;;;10.22;100.00;99307.75;6222127;27;97502;-72
2023/10/17 03:59:38;;;;;;;;;22.00;19.50;;;;;10.24;100.00;99309.22;6291043;27;98601;-73
2023/10/17 04:02:41;;;;;;;;;20.60;19.20;;;;;10.18;100.00;99299.28;6222762;27;97289;-73
2023/10/17 04:05:44;;;;;;;;;26.40;22.20;;;;;10.14;100.00;99306.09;6263580;27;96729;-72
2023/10/17 04:08:56;;;;;;;;;25.20;23.80;;;;;10.11;100.00;99302.97;6196744;28;96387;-73
2023/10/17 04:12:03;;;;;;;;;23.00;21.80;;;;;10.06;100.00;99303.63;6278904;27;96264;-72
2023/10/17 04:15:09;;;;;;;;;24.40;22.60;;;;;10.00;100.00;99296.34;6201337;28;96464;-71
2023/10/17 04:18:12;;;;;;;;;23.00;21.60;;;;;9.97;100.00;99302.97;6203777;28;96433;-73
2023/10/17 04:21:26;;;;;;;;;23.80;21.80;;;;;9.94;100.00;99302.56;6268651;27;96583;-72
2023/10/17 04:24:34;;;;;;;;;19.00;18.00;;;;;9.89;100.00;99295.13;6252939;27;96491;-72
2023/10/17 04:27:39;;;;;;;;;21.00;20.00;;;;;9.83;100.00;99292.41;6280322;27;98399;-73
2023/10/17 04:30:47;;;;;;;;;24.80;21.80;;;;;9.85;100.00;99298.44;6204277;28;97638;-73
2023/10/17 04:33:55;;;;;;;;;25.00;24.00;;;;;9.81;100.00;99302.56;6273786;27;96328;-72
2023/10/17 04:37:05;;;;;;;;;26.40;23.40;;;;;9.78;100.00;99290.34;6207118;27;96506;-70
2023/10/17 04:43:45;;;;;;;;;28.00;26.00;;;;;9.71;100.00;99292.22;6237467;27;96352;-72
2023/10/17 04:47:25;;;;;;;;;29.00;27.40;;;;;9.65;100.00;99287.66;6219927;27;96377;-72
2023/10/17 04:50:15;;;;;;;;;25.75;24.75;;;;;9.64;100.00;99299.44;6254667;27;98658;-72
2023/10/17 04:53:26;;;;;;;;;28.00;27.00;;;;;9.67;100.00;99295.53;6207577;27;96435;-72
2023/10/17 04:56:41;;;;;;;;;27.00;23.00;;;;;9.68;100.00;99298.00;6288646;27;96672;-71
2023/10/17 05:03:13;;;;;;;;;25.25;24.50;;;;;9.62;100.00;99304.22;6264408;27;96451;-72
2023/10/17 05:06:21;;;;;;;;;16.75;15.00;;;;;9.57;100.00;99307.53;6197613;28;96242;-71
2023/10/17 06:19:47;;;;;;;;;26.40;24.00;;;;;14.88;100.00;99359.09;6252451;27;96420;-73
2023/10/17 06:33:16;;;;;;;;;18.33;17.33;;;;;20.85;93.22;99375.50;6230032;27;97779;-73
2023/10/17 06:36:25;;;;;;;;;40.50;35.00;;;;;22.97;82.37;99385.28;6249104;27;96859;-73
2023/10/17 06:39:37;;;;;;;;;38.00;32.00;;;;;24.84;71.19;99385.44;6184018;28;96943;-74
2023/10/17 06:42:48;;;;;;;;;33.00;30.00;;;;;26.47;58.71;99392.03;6185105;28;96589;-74
2023/10/17 06:45:55;;;;;;;;;27.00;25.00;;;;;27.39;51.99;99391.25;6184402;28;96265;-74
2023/10/17 06:49:03;;;;;;;;;23.60;22.20;;;;;27.95;48.28;99400.75;6184317;27;96291;-74
2023/10/17 06:52:18;;;;;;;;;26.00;24.40;;;;;28.59;42.55;99389.84;6268103;27;96720;-74
2023/10/17 06:55:29;;;;;;;;;23.60;22.20;;;;;29.33;40.00;99389.50;6184097;28;96531;-74
2023/10/17 06:58:33;;;;;;;;;22.80;21.80;;;;;29.61;38.54;99390.72;6250361;27;98741;-74
2023/10/17 07:01:38;;;;;;;;;22.00;21.00;;;;;29.98;37.68;99392.63;6183716;28;96214;-74
2023/10/17 07:04:43;;;;;;;;;25.00;23.00;;;;;30.48;34.57;99397.34;6272775;27;96990;-75
2023/10/17 07:07:52;;;;;;;;;22.00;21.40;;;;;31.07;34.41;99397.91;6264340;27;97309;-73
2023/10/17 07:11:02;;;;;;;;;21.00;19.60;;;;;31.37;33.26;99398.53;6260190;27;97648;-75
2023/10/17 07:14:22;;;;;;;;;22.60;20.60;;;;;31.50;32.67;99394.59;6207351;28;97294;-75
2023/10/17 07:17:28;;;;;;;;;23.60;20.00;;;;;31.73;31.76;99398.56;6274913;27;96793;-75
2023/10/17 07:21:14;;;;;;;;;19.25;18.00;;;;;31.40;31.06;99397.81;6275996;27;96259;-75
2023/10/17 07:23:55;;;;;;;;;18.60;18.00;;;;;31.25;31.31;99395.72;6208320;27;96336;-75
2023/10/17 07:27:01;;;;;;;;;20.40;18.80;;;;;30.77;31.23;99388.03;6208358;28;96242;-75
2023/10/17 07:30:13;;;;;;;;;21.00;20.00;;;;;30.23;33.86;99384.41;6274984;27;96351;-75
2023/10/17 07:33:17;;;;;;;;;20.50;18.75;;;;;30.92;32.94;99385.44;6275042;27;96360;-75
2023/10/17 07:36:20;;;;;;;;;18.40;16.00;;;;;32.20;30.09;99386.91;6207334;27;96609;-75
2023/10/17 07:39:24;;;;;;;;;15.40;14.40;;;;;33.20;27.50;99379.34;6208122;28;96371;-74
2023/10/17 07:42:31;;;;;;;;;17.00;16.00;;;;;33.28;26.83;99378.38;6277618;27;97612;-73
2023/10/17 07:45:39;;;;;;;;;17.60;15.40;;;;;32.63;27.72;99373.03;6277401;27;96963;-73
2023/10/17 07:48:48;;;;;;;;;18.00;16.00;;;;;31.63;28.87;99361.97;6210173;28;96137;-73
2023/10/17 07:51:52;;;;;;;;;15.60;14.00;;;;;31.20;30.05;99379.22;6210874;28;96269;-74
2023/10/17 07:54:57;;;;;;;;;14.60;13.60;;;;;31.01;31.21;99381.72;6211475;28;96350;-74
2023/10/17 07:58:06;;;;;;;;;16.40;14.60;;;;;31.39;29.59;99382.25;6210033;28;96928;-73
2023/10/17 08:01:14;;;;;;;;;15.25;14.00;;;;;32.19;28.03;99374.09;6273259;27;96730;-75
2023/10/17 08:04:23;;;;;;;;;12.40;12.00;;;;;33.50;26.44;99383.31;6264758;27;98373;-73
2023/10/17 08:07:29;;;;;;;;;14.00;13.00;;;;;33.75;25.52;99389.53;6205012;27;96845;-74
2023/10/17 08:10:33;;;;;;;;;17.00;16.00;;;;;34.32;25.43;99377.66;6202989;27;96275;-74
2023/10/17 08:13:38;;;;;;;;;14.40;13.40;;;;;34.97;23.79;99389.78;6265427;27;96626;-74
2023/10/17 08:16:42;;;;;;;;;15.75;13.00;;;;;35.72;23.19;99377.91;6270879;27;96558;-75
2023/10/17 08:23:08;;;;;;;;;7.00;7.00;;;;;35.89;20.58;99382.97;6267493;27;96571;-74
2023/10/17 08:26:10;;;;;;;;;10.40;10.00;;;;;35.92;22.08;99373.78;6186933;28;96392;-74
2023/10/17 08:29:20;;;;;;;;;12.00;11.00;;;;;36.35;22.08;99371.59;6272244;27;96427;-75
2023/10/17 08:32:54;;;;;;;;;11.00;10.50;;;;;36.98;21.15;99363.13;6210959;28;96750;-75
2023/10/17 08:36:01;;;;;;;;;7.00;6.00;;;;;35.61;21.90;99366.50;6187832;28;96943;-75
2023/10/17 08:39:25;;;;;;;;;7.00;6.60;;;;;33.04;23.01;99365.34;6253138;27;98428;-75
2023/10/17 08:42:31;;;;;;;;;9.00;7.00;;;;;33.27;24.75;99355.22;6253349;27;96545;-75
2023/10/17 08:45:38;;;;;;;;;9.00;6.00;;;;;32.36;24.61;99365.44;6252942;27;98843;-75
2023/10/17 08:48:43;;;;;;;;;7.60;6.60;;;;;32.32;25.01;99358.94;6186645;28;96356;-75
2023/10/17 08:51:48;;;;;;;;;8.40;8.00;;;;;33.25;25.15;99365.09;6282513;27;98537;-75
2023/10/17 08:54:52;;;;;;;;;7.00;7.00;;;;;34.17;24.31;99367.31;6291398;27;96213;-75
2023/10/17 08:57:55;;;;;;;;;8.60;7.00;;;;;34.50;23.33;99370.44;6289342;27;96292;-75
2023/10/17 09:01:10;;;;;;;;;6.00;6.00;;;;;34.84;22.42;99367.94;6289111;27;99253;-76
2023/10/17 09:04:18;;;;;;;;;6.25;5.75;;;;;33.14;23.22;99364.81;6289631;27;96244;-73
2023/10/17 09:07:31;;;;;;;;;5.40;4.40;;;;;31.13;25.82;99370.66;6297026;27;96422;-75
2023/10/17 09:10:37;;;;;;;;;9.00;5.60;;;;;29.10;29.03;99361.97;6289654;27;96491;-75
2023/10/17 09:14:14;;;;;;;;;7.40;7.00;;;;;27.28;32.67;99367.75;6290011;27;96665;-76
2023/10/17 09:17:21;;;;;;;;;6.50;6.50;;;;;25.58;35.80;99364.19;6290180;27;96862;-75
2023/10/17 09:20:35;;;;;;;;;9.00;7.40;;;;;25.07;41.28;99369.09;6289550;27;96553;-75
2023/10/17 09:23:39;;;;;;;;;6.20;6.20;;;;;26.27;36.81;99357.38;6271014;27;96722;-74
2023/10/17 09:26:46;;;;;;;;;6.00;5.00;;;;;28.58;31.97;99357.69;6313435;27;96591;-75
2023/10/17 09:29:51;;;;;;;;;6.80;6.00;;;;;30.09;29.56;99359.66;6313368;27;96718;-75
2023/10/17 09:32:55;;;;;;;;;7.00;7.00;;;;;31.28;25.89;99364.38;6311438;27;97580;-74
2023/10/17 09:36:00;;;;;;;;;6.00;6.00;;;;;31.55;25.42;99366.47;6292320;27;97120;-74
2023/10/17 09:39:05;;;;;;;;;7.60;6.60;;;;;32.39;24.57;99364.75;6285157;27;96520;-74
2023/10/17 09:42:08;;;;;;;;;9.00;8.00;;;;;32.78;25.06;99362.25;6285411;27;96655;-75
2023/10/17 09:45:12;;;;;;;;;7.40;7.00;;;;;34.01;23.90;99366.56;6281074;27;97342;-75
2023/10/17 09:48:38;;;;;;;;;7.00;6.67;;;;;33.18;23.74;99370.53;6299741;27;96486;-74
2023/10/17 09:51:46;;;;;;;;;8.00;7.00;;;;;31.49;25.29;99370.66;6287386;27;96472;-75
2023/10/17 09:54:52;;;;;;;;;6.00;6.00;;;;;29.68;28.08;99363.19;6287671;27;96643;-75
2023/10/17 09:58:02;;;;;;;;;5.00;5.00;;;;;28.17;30.00;99352.66;6290653;27;98409;-75
2023/10/17 10:01:14;;;;;;;;;7.50;7.00;;;;;26.70;33.75;99354.09;6306417;27;96544;-75
2023/10/17 10:04:20;;;;;;;;;8.00;6.80;;;;;25.39;36.00;99349.66;6312864;27;96770;-75
2023/10/17 10:07:26;;;;;;;;;7.25;7.00;;;;;24.29;38.66;99340.34;6314683;27;96539;-74
2023/10/17 10:10:49;;;;;;;;;8.00;7.00;;;;;23.24;43.87;99346.22;6294800;27;97291;-74
2023/10/17 10:14:03;;;;;;;;;8.60;8.00;;;;;22.41;49.79;99349.22;6312132;27;96655;-74
2023/10/17 10:17:08;;;;;;;;;9.00;8.00;;;;;21.91;51.32;99336.66;6314133;27;96360;-73
2023/10/17 10:20:13;;;;;;;;;9.00;8.00;;;;;21.72;56.17;99332.94;6312331;27;97026;-73
2023/10/17 10:23:18;;;;;;;;;8.40;8.40;;;;;22.82;51.91;99327.72;6311534;27;96818;-74
2023/10/17 10:26:22;;;;;;;;;8.00;8.00;;;;;25.13;47.49;99338.31;6308506;27;96499;-76
2023/10/17 10:29:25;;;;;;;;;5.20;5.00;;;;;27.33;35.39;99325.25;6310914;27;96241;-76
2023/10/17 10:32:34;;;;;;;;;6.00;5.80;;;;;28.86;31.70;99322.88;6298115;27;97677;-76
2023/10/17 10:35:42;;;;;;;;;6.50;6.50;;;;;28.78;28.59;99318.97;6295747;27;97578;-73
2023/10/17 10:38:46;;;;;;;;;6.00;6.00;;;;;28.03;28.26;99297.38;6306071;27;96488;-73
2023/10/17 10:42:00;;;;;;;;;6.00;6.00;;;;;27.37;28.12;99309.63;6307983;27;96275;-74
2023/10/17 10:45:04;;;;;;;;;7.00;7.00;;;;;26.91;28.65;99302.66;6312017;27;96334;-73
2023/10/17 10:48:14;;;;;;;;;3.75;3.75;;;;;27.55;27.21;99295.56;6303185;27;96631;-74
2023/10/17 10:51:19;;;;;;;;;5.00;4.40;;;;;27.09;27.29;99295.22;6288286;27;97105;-75
2023/10/17 10:54:22;;;;;;;;;5.00;5.00;;;;;25.91;29.61;99290.25;6249964;27;96672;-74
2023/10/17 10:57:29;;;;;;;;;6.00;5.00;;;;;24.57;32.08;99291.66;6198986;28;96390;-74
2023/10/17 11:00:32;;;;;;;;;6.40;6.00;;;;;23.53;35.70;99289.16;6210128;27;97670;-74
2023/10/17 11:03:41;;;;;;;;;4.00;4.00;;;;;22.55;37.06;99286.19;6208303;28;96259;-73
2023/10/17 11:06:47;;;;;;;;;3.20;3.20;;;;;22.06;40.70;99289.91;6243989;27;96458;-70
2023/10/17 11:10:01;;;;;;;;;5.00;5.00;;;;;21.34;42.87;99275.00;6196722;28;96435;-72
2023/10/17 11:13:06;;;;;;;;;5.00;5.00;;;;;21.06;46.50;99281.16;6197632;27;96944;-73
2023/10/17 11:16:09;;;;;;;;;4.00;4.00;;;;;20.85;49.06;99268.59;6278941;27;98503;-73
2023/10/17 11:19:21;;;;;;;;;6.00;5.00;;;;;20.61;52.90;99266.50;6286282;27;98331;-73
2023/10/17 11:22:28;;;;;;;;;5.25;5.25;;;;;20.38;48.66;99261.59;6266661;27;98957;-73
2023/10/17 11:25:34;;;;;;;;;5.00;4.40;;;;;20.13;48.60;99259.69;6293606;27;96660;-71
2023/10/17 11:28:42;;;;;;;;;4.25;4.25;;;;;19.97;51.21;99254.50;6316933;27;96664;-73
2023/10/17 11:31:45;;;;;;;;;4.00;4.00;;;;;20.28;51.69;99250.66;6302065;27;96279;-73
2023/10/17 11:35:04;;;;;;;;;5.20;5.20;;;;;20.97;47.35;99255.41;6295702;27;96353;-72
2023/10/17 11:38:22;;;;;;;;;5.00;5.00;;;;;22.40;44.60;99259.66;6267604;27;96379;-73
2023/10/17 11:41:30;;;;;;;;;6.40;6.00;;;;;24.07;38.13;99252.81;6278746;27;96964;-73
2023/10/17 11:44:46;;;;;;;;;5.00;5.00;;;;;24.79;33.79;99246.84;6259357;27;96994;-74
2023/10/17 11:47:51;;;;;;;;;7.00;7.00;;;;;25.49;33.42;99247.31;6275446;27;98371;-74
2023/10/17 11:51:05;;;;;;;;;8.50;7.50;;;;;25.80;32.34;99252.97;6210418;28;96406;-74
2023/10/17 11:54:09;;;;;;;;;3.00;3.00;;;;;25.73;30.74;99247.88;6204199;27;96396;-74
2023/10/17 11:57:32;;;;;;;;;4.60;4.60;;;;;25.04;28.20;99249.09;6210331;27;97486;-74
2023/10/17 12:00:36;;;;;;;;;4.00;4.00;;;;;25.49;27.77;99247.31;6226208;27;96862;-74
2023/10/17 12:03:41;;;;;;;;;5.20;5.20;;;;;26.00;28.25;99246.13;6289771;27;96710;-74
2023/10/17 12:06:47;;;;;;;;;4.20;4.00;;;;;26.21;26.47;99253.59;6227940;27;96391;-73
2023/10/17 12:09:53;;;;;;;;;6.00;5.33;;;;;25.97;26.61;99255.84;6204681;27;96639;-73
2023/10/17 12:12:58;;;;;;;;;6.00;6.00;;;;;25.92;27.08;99244.09;6211335;27;96837;-74
2023/10/17 12:16:08;;;;;;;;;6.00;6.00;;;;;25.42;27.52;99198.03;6210761;28;96593;-74
2023/10/17 12:19:12;;;;;;;;;6.00;5.50;;;;;25.37;27.85;99234.03;6211655;28;96278;-74
2023/10/17 12:22:15;;;;;;;;;4.60;4.60;;;;;24.69;30.06;99158.81;6265705;27;96332;-74
2023/10/17 12:25:23;;;;;;;;;8.00;7.00;;;;;24.73;29.51;99223.25;6277974;27;96592;-74
2023/10/17 12:28:27;;;;;;;;;5.75;5.00;;;;;24.40;32.73;99219.75;6279560;27;96546;-74
2023/10/17 12:31:30;;;;;;;;;5.25;5.25;;;;;24.03;33.61;99210.47;6211018;28;96762;-73
2023/10/17 12:34:33;;;;;;;;;6.00;6.00;;;;;23.40;32.95;99212.84;6264148;27;96868;-73
2023/10/17 12:37:43;;;;;;;;;4.25;4.00;;;;;22.63;36.27;99209.41;6208797;28;96274;-73
2023/10/17 12:40:48;;;;;;;;;4.00;4.00;;;;;21.73;38.22;99216.59;6200519;27;96695;-74
2023/10/17 12:43:51;;;;;;;;;6.00;5.60;;;;;20.99;42.31;99214.81;6271761;27;98724;-73
2023/10/17 12:46:55;;;;;;;;;5.00;4.40;;;;;20.61;44.65;99206.22;6207891;27;96681;-74
2023/10/17 12:49:58;;;;;;;;;5.00;5.00;;;;;20.17;47.60;99210.69;6316838;27;97486;-74
2023/10/17 12:53:01;;;;;;;;;4.00;4.00;;;;;19.45;51.97;99198.09;6281728;27;97091;-74
2023/10/17 12:56:10;;;;;;;;;5.00;5.00;;;;;19.09;55.88;99196.38;6309816;27;96993;-74
2023/10/17 12:59:13;;;;;;;;;4.00;4.00;;;;;18.86;59.54;99198.47;6307172;27;96618;-73
2023/10/17 13:02:16;;;;;;;;;4.80;4.80;;;;;18.68;61.44;99195.41;6292857;27;96757;-73
2023/10/17 13:05:20;;;;;;;;;6.80;5.00;;;;;18.51;63.81;99195.59;6303297;27;96816;-74
2023/10/17 13:08:24;;;;;;;;;7.50;6.50;;;;;19.00;60.23;99188.72;6277239;27;96620;-73
2023/10/17 13:11:29;;;;;;;;;4.40;4.00;;;;;19.35;59.86;99187.16;6244515;27;97072;-74
2023/10/17 13:14:32;;;;;;;;;6.60;6.00;;;;;19.57;57.11;99171.31;6198207;27;97252;-74
2023/10/17 13:17:35;;;;;;;;;6.60;5.00;;;;;20.06;57.57;99184.41;6198886;28;96737;-74
2023/10/17 13:20:38;;;;;;;;;8.00;7.00;;;;;20.47;55.26;99175.06;6242602;27;96984;-73
2023/10/17 13:24:01;;;;;;;;;5.75;5.75;;;;;20.55;53.65;99166.25;6197856;27;96540;-74
2023/10/17 13:27:06;;;;;;;;;8.00;7.00;;;;;20.60;49.35;99160.75;6195112;28;96402;-73
2023/10/17 13:30:22;;;;;;;;;5.00;4.25;;;;;20.44;47.94;99169.28;6263177;27;96641;-73
2023/10/17 13:33:27;;;;;;;;;5.00;4.00;;;;;20.36;48.03;99159.75;6246642;27;98418;-73
2023/10/17 13:36:30;;;;;;;;;6.00;5.00;;;;;20.74;50.67;99152.72;6268735;27;96536;-73
2023/10/17 13:39:34;;;;;;;;;7.00;6.00;;;;;20.90;49.74;99148.00;6189714;28;96595;-74
2023/10/17 13:42:38;;;;;;;;;7.25;7.25;;;;;20.80;46.84;99153.53;6260563;27;96942;-73
2023/10/17 13:45:42;;;;;;;;;6.00;6.00;;;;;20.82;47.32;99160.34;6195697;28;96345;-73
2023/10/17 13:48:48;;;;;;;;;4.20;4.20;;;;;20.82;49.66;99148.59;6204982;27;97091;-72
2023/10/17 13:51:53;;;;;;;;;7.00;6.00;;;;;20.81;49.83;99141.47;6272528;27;96651;-75
2023/10/17 13:54:58;;;;;;;;;5.00;4.00;;;;;20.30;48.34;99138.91;6201647;28;96334;-75
2023/10/17 13:58:02;;;;;;;;;4.00;4.00;;;;;19.91;51.17;99144.22;6194662;27;96360;-75
2023/10/17 14:01:27;;;;;;;;;6.00;6.00;;;;;19.56;66.02;99144.22;6272648;27;96276;-74
2023/10/17 14:04:29;;;;;;;;;8.40;8.40;;;;;19.04;58.47;99143.34;6257451;27;96531;-74
2023/10/17 14:07:32;;;;;;;;;7.00;6.00;;;;;18.67;57.21;99137.22;6250620;27;99446;-75
2023/10/17 14:10:37;;;;;;;;;6.00;6.00;;;;;18.35;61.82;99144.72;6258715;27;96781;-74
2023/10/17 14:13:42;;;;;;;;;8.20;8.20;;;;;18.08;63.55;99132.03;6264556;27;97019;-74
2023/10/17 14:16:50;;;;;;;;;4.00;4.00;;;;;17.91;64.14;99134.13;6196215;28;96236;-75
2023/10/17 14:20:05;;;;;;;;;9.33;9.33;;;;;17.53;71.99;99134.34;6197645;27;96372;-73
2023/10/17 14:23:12;;;;;;;;;7.00;7.00;;;;;17.29;76.71;99132.00;6239637;27;96467;-72
2023/10/17 14:26:16;;;;;;;;;9.40;9.40;;;;;16.99;80.56;99133.59;6267863;27;98272;-73
2023/10/17 14:29:21;;;;;;;;;8.00;8.00;;;;;16.77;83.24;99128.19;6263500;27;96221;-73
2023/10/17 14:32:24;;;;;;;;;7.00;7.00;;;;;16.46;85.07;99125.09;6260252;27;97725;-72
2023/10/17 14:35:34;;;;;;;;;10.00;10.00;;;;;16.30;87.34;99123.25;6196946;27;96637;-70
2023/10/17 14:38:37;;;;;;;;;7.80;6.80;;;;;16.21;88.35;99119.34;6194671;28;96237;-69
2023/10/17 14:41:40;;;;;;;;;8.00;7.40;;;;;16.26;90.44;99116.69;6259906;27;96434;-69
2023/10/17 14:44:45;;;;;;;;;7.80;7.80;;;;;16.27;90.96;99109.34;6243260;27;96633;-70
2023/10/17 14:47:49;;;;;;;;;9.00;8.25;;;;;16.35;91.94;99112.44;6261574;27;96785;-69
2023/10/17 14:50:52;;;;;;;;;8.25;8.25;;;;;16.63;91.77;99110.59;6273424;27;96401;-69
2023/10/17 14:53:55;;;;;;;;;11.40;10.00;;;;;16.91;90.72;99104.13;6270782;27;96871;-70
2023/10/17 14:57:02;;;;;;;;;10.00;9.00;;;;;17.04;88.18;99104.50;6193170;27;96486;-70
2023/10/17 15:00:11;;;;;;;;;11.60;9.60;;;;;16.87;88.61;99090.16;6250009;27;98791;-70
2023/10/17 15:03:14;;;;;;;;;7.00;7.00;;;;;16.76;91.01;99105.56;6199474;28;96314;-71
2023/10/17 15:06:17;;;;;;;;;11.00;11.00;;;;;16.63;93.57;99103.25;6183186;27;96367;-70
2023/10/17 15:09:21;;;;;;;;;12.00;10.40;;;;;16.53;95.16;99116.72;6186800;28;96490;-70
2023/10/17 15:12:25;;;;;;;;;10.40;9.80;;;;;16.42;95.89;99110.34;6186749;28;97351;-70
2023/10/17 15:15:32;;;;;;;;;10.00;9.00;;;;;16.37;95.89;99117.63;6256409;27;98507;-69
2023/10/17 15:18:35;;;;;;;;;8.60;7.60;;;;;16.25;95.14;99115.03;6255772;27;96779;-70
2023/10/17 15:21:39;;;;;;;;;11.00;10.00;;;;;16.15;95.03;99114.91;6180260;28;96454;-69
2023/10/17 15:24:42;;;;;;;;;8.50;8.50;;;;;16.01;95.55;99110.91;6194185;27;96471;-70
2023/10/17 15:27:47;;;;;;;;;13.00;13.00;;;;;15.90;98.25;99114.56;6189493;28;97194;-70
2023/10/17 15:30:52;;;;;;;;;9.00;8.00;;;;;15.85;100.00;99118.03;6256810;27;96631;-69
2023/10/17 15:33:56;;;;;;;;;9.00;8.80;;;;;15.74;100.00;99112.69;6272201;27;96879;-69
2023/10/17 15:37:00;;;;;;;;;11.00;11.00;;;;;15.67;100.00;99114.75;6186765;28;97176;-70
2023/10/17 15:40:07;;;;;;;;;11.00;9.75;;;;;15.61;100.00;99113.84;6188359;28;96251;-69
2023/10/17 15:43:11;;;;;;;;;12.50;12.50;;;;;15.46;100.00;99117.13;6258169;27;96740;-70
2023/10/17 15:46:16;;;;;;;;;12.60;11.60;;;;;15.48;100.00;99114.19;6260282;27;96953;-70
2023/10/17 15:49:20;;;;;;;;;9.20;9.20;;;;;15.44;100.00;99121.19;6254836;27;96359;-70
2023/10/17 15:52:23;;;;;;;;;11.00;11.00;;;;;15.39;100.00;99127.38;6231357;27;99530;-70
2023/10/17 15:55:26;;;;;;;;;12.40;10.40;;;;;15.33;100.00;99127.50;6254760;27;98485;-70
2023/10/17 15:58:31;;;;;;;;;14.60;14.00;;;;;15.27;100.00;99136.63;6243061;27;98388;-70